Time;durP1;ratioP1;P1;durP2;ratioP2;P2;SDS_P1;SDS_P2;PMS_P1;PMS_P2;Temp;Humidity;BMP_temperature;BMP_pressure;BME280_temperature;BME280_humidity;BME280_pressure;Samples;Min_cycle;Max_cycle;Signal;HPM_P1;HPM_P2
2023/04/16 00:00:09;;;;;;;11.35;5.55;;;;;;;;;;5011676;28;20497;-59
2023/04/16 00:02:42;;;;;;;10.15;4.65;;;;;;;;;;5012459;28;20508;-57
2023/04/16 00:05:15;;;;;;;7.72;5.15;;;;;;;;;;5013817;28;20490;-58
2023/04/16 00:07:51;;;;;;;14.30;6.07;;;;;;;;;;4996983;28;20054;-57
2023/04/16 00:10:19;;;;;;;9.73;5.57;;;;;;;;;;5012541;28;20060;-59
2023/04/16 00:12:46;;;;;;;10.30;5.40;;;;;;;;;;5011560;28;20053;-60
2023/04/16 00:15:19;;;;;;;14.68;5.75;;;;;;;;;;5015005;28;20048;-61
2023/04/16 00:17:46;;;;;;;8.23;5.30;;;;;;;;;;5009838;28;20076;-61
2023/04/16 00:20:20;;;;;;;9.02;5.25;;;;;;;;;;5017202;28;20052;-61
2023/04/16 00:22:47;;;;;;;11.25;6.05;;;;;;;;;;5010354;28;20137;-61
2023/04/16 00:25:15;;;;;;;12.15;5.35;;;;;;;;;;5012233;28;20508;-61
2023/04/16 00:27:48;;;;;;;11.15;5.50;;;;;;;;;;5014584;28;20156;-61
2023/04/16 00:30:15;;;;;;;11.02;5.85;;;;;;;;;;5011853;28;20049;-56
2023/04/16 00:32:50;;;;;;;10.20;5.55;;;;;;;;;;5011013;28;20144;-55
2023/04/16 00:35:23;;;;;;;;;;;;;;;;;;5012902;28;20074;-58
2023/04/16 00:38:04;;;;;;;9.00;5.63;;;;;;;;;;5012481;28;20044;-55
2023/04/16 00:40:31;;;;;;;9.68;5.30;;;;;;;;;;5012330;28;20059;-61
2023/04/16 00:43:05;;;;;;;8.00;5.20;;;;;;;;;;5015113;28;20501;-49
2023/04/16 00:45:32;;;;;;;11.13;5.30;;;;;;;;;;5011202;28;20199;-51
2023/04/16 00:48:00;;;;;;;9.45;6.00;;;;;;;;;;5012777;28;20055;-46
2023/04/16 00:50:33;;;;;;;13.98;6.03;;;;;;;;;;5010577;28;20050;-46
2023/04/16 00:53:01;;;;;;;9.70;5.10;;;;;;;;;;5010390;28;20436;-47
2023/04/16 00:55:34;;;;;;;12.77;5.88;;;;;;;;;;5012454;28;20296;-48
2023/04/16 00:58:03;;;;;;;13.45;5.22;;;;;;;;;;5014248;28;20092;-50
2023/04/16 01:00:30;;;;;;;9.75;5.20;;;;;;;;;;5012989;28;20053;-49
2023/04/16 01:03:04;;;;;;;9.65;5.75;;;;;;;;;;5012671;28;20128;-52
2023/04/16 01:05:31;;;;;;;12.70;5.50;;;;;;;;;;5011778;28;20054;-50
2023/04/16 01:08:06;;;;;;;15.32;5.82;;;;;;;;;;5016800;28;20052;-61
2023/04/16 01:10:33;;;;;;;10.57;5.30;;;;;;;;;;5012828;28;20060;-60
2023/04/16 01:13:00;;;;;;;8.13;5.20;;;;;;;;;;5011709;28;20041;-60
2023/04/16 01:15:37;;;;;;;10.27;5.40;;;;;;;;;;5013850;28;20417;-60
2023/04/16 01:18:16;;;;;;;8.27;5.55;;;;;;;;;;5015314;28;20497;-60
2023/04/16 01:20:50;;;;;;;8.05;4.93;;;;;;;;;;5015364;28;20185;-60
2023/04/16 01:23:18;;;;;;;9.90;5.15;;;;;;;;;;5010862;28;20049;-60
2023/04/16 01:25:46;;;;;;;7.90;4.85;;;;;;;;;;5013447;28;20561;-60
2023/04/16 01:28:19;;;;;;;9.23;5.32;;;;;;;;;;5018082;28;20056;-60
2023/04/16 01:30:47;;;;;;;9.13;5.10;;;;;;;;;;5013839;28;20128;-60
2023/04/16 01:33:21;;;;;;;7.88;4.93;;;;;;;;;;5015396;28;20213;-60
2023/04/16 01:35:54;;;;;;;8.30;5.20;;;;;;;;;;5013867;28;20128;-59
2023/04/16 01:38:35;;;;;;;10.82;5.57;;;;;;;;;;5011066;28;20073;-59
2023/04/16 01:41:02;;;;;;;11.80;5.45;;;;;;;;;;5014383;28;20464;-58
2023/04/16 01:43:36;;;;;;;10.43;5.30;;;;;;;;;;5011101;28;20057;-57
2023/04/16 01:46:12;;;;;;;9.00;5.70;;;;;;;;;;5010661;28;20095;-58
2023/04/16 01:48:46;;;;;;;13.02;5.10;;;;;;;;;;5012547;28;20049;-58
2023/04/16 01:51:17;;;;;;;13.07;5.18;;;;;;;;;;5011834;28;20416;-58
2023/04/16 01:53:44;;;;;;;9.13;5.40;;;;;;;;;;5008428;28;20050;-58
2023/04/16 01:56:18;;;;;;;9.25;5.30;;;;;;;;;;5010760;28;20624;-58
2023/04/16 01:58:46;;;;;;;11.43;5.88;;;;;;;;;;5009749;28;20531;-59
2023/04/16 02:01:20;;;;;;;9.30;4.90;;;;;;;;;;5010772;28;20045;-59
2023/04/16 02:03:47;;;;;;;11.02;5.80;;;;;;;;;;5013650;28;20049;-55
2023/04/16 02:06:18;;;;;;;9.98;5.35;;;;;;;;;;5010938;28;20056;-59
2023/04/16 02:08:52;;;;;;;11.25;5.60;;;;;;;;;;5012737;28;20442;-62
2023/04/16 02:11:20;;;;;;;9.90;5.28;;;;;;;;;;5019638;28;20053;-62
2023/04/16 02:13:53;;;;;;;8.90;5.60;;;;;;;;;;5016324;28;20052;-61
2023/04/16 02:16:20;;;;;;;11.68;5.63;;;;;;;;;;5015625;28;20060;-62
2023/04/16 02:18:48;;;;;;;10.63;5.35;;;;;;;;;;5017192;28;20068;-62
2023/04/16 02:21:21;;;;;;;9.90;4.97;;;;;;;;;;5012288;28;20050;-61
2023/04/16 02:23:50;;;;;;;10.80;5.15;;;;;;;;;;5014664;28;20053;-48
2023/04/16 02:26:25;;;;;;;11.68;5.38;;;;;;;;;;5015457;28;20046;-50
2023/04/16 02:28:52;;;;;;;9.10;5.15;;;;;;;;;;5016183;28;20057;-48
2023/04/16 02:31:27;;;;;;;11.80;5.55;;;;;;;;;;5016270;28;20075;-48
2023/04/16 02:33:54;;;;;;;10.15;5.25;;;;;;;;;;5019487;28;20049;-56
2023/04/16 02:36:21;;;;;;;10.82;5.80;;;;;;;;;;5002905;28;20302;-54
2023/04/16 02:38:55;;;;;;;12.80;5.50;;;;;;;;;;4997609;28;20046;-54
2023/04/16 02:41:23;;;;;;;8.85;5.28;;;;;;;;;;4999279;28;20064;-57
2023/04/16 02:43:56;;;;;;;8.30;5.65;;;;;;;;;;4995797;28;20077;-57
2023/04/16 02:46:24;;;;;;;10.13;5.70;;;;;;;;;;4995056;28;20046;-57
2023/04/16 02:48:51;;;;;;;8.68;4.75;;;;;;;;;;4995656;28;20137;-58
2023/04/16 02:51:26;;;;;;;10.23;5.22;;;;;;;;;;4999144;28;20045;-60
2023/04/16 02:53:53;;;;;;;10.13;5.45;;;;;;;;;;4997457;28;20061;-60
2023/04/16 02:56:28;;;;;;;9.35;5.63;;;;;;;;;;4997499;28;20050;-59
2023/04/16 02:58:55;;;;;;;9.35;5.38;;;;;;;;;;5000624;28;20042;-60
2023/04/16 03:01:22;;;;;;;10.13;5.30;;;;;;;;;;4994996;28;20136;-60
2023/04/16 03:03:56;;;;;;;12.55;5.82;;;;;;;;;;4996541;28;20073;-46
2023/04/16 03:06:25;;;;;;;9.15;5.22;;;;;;;;;;4999523;28;20521;-61
2023/04/16 03:08:59;;;;;;;12.50;5.32;;;;;;;;;;4997854;28;20057;-61
2023/04/16 03:11:26;;;;;;;9.80;5.47;;;;;;;;;;4999229;28;20091;-61
2023/04/16 03:13:53;;;;;;;6.45;5.10;;;;;;;;;;5000953;28;20185;-61
2023/04/16 03:16:26;;;;;;;9.90;5.20;;;;;;;;;;4997645;28;20590;-61
2023/04/16 03:18:53;;;;;;;10.23;4.90;;;;;;;;;;4996730;28;20531;-60
2023/04/16 03:21:27;;;;;;;10.75;5.57;;;;;;;;;;4999310;28;20050;-51
2023/04/16 03:23:54;;;;;;;13.52;5.28;;;;;;;;;;4999793;28;20056;-48
2023/04/16 03:26:22;;;;;;;16.17;5.00;;;;;;;;;;5001613;28;20049;-51
2023/04/16 03:28:55;;;;;;;8.18;5.25;;;;;;;;;;5001810;28;20060;-51
2023/04/16 03:31:25;;;;;;;8.68;4.72;;;;;;;;;;5002125;28;20121;-58
2023/04/16 03:33:59;;;;;;;7.05;4.55;;;;;;;;;;4998237;28;20073;-49
2023/04/16 03:36:33;;;;;;;10.85;5.35;;;;;;;;;;5005893;28;20050;-48
2023/04/16 03:39:07;;;;;;;8.75;5.47;;;;;;;;;;5016198;28;20054;-54
2023/04/16 03:41:35;;;;;;;;;;;;;;;;;;5015883;28;20100;-47
2023/04/16 03:44:02;;;;;;;9.80;5.18;;;;;;;;;;5016353;28;19929;-54
2023/04/16 03:46:44;;;;;;;10.98;5.60;;;;;;;;;;5016044;28;20049;-49
2023/04/16 03:49:17;;;;;;;9.65;5.65;;;;;;;;;;5015538;28;20048;-60
2023/04/16 03:51:51;;;;;;;10.80;5.50;;;;;;;;;;5013323;28;20099;-60
2023/04/16 03:54:18;;;;;;;11.82;5.25;;;;;;;;;;5013768;28;20137;-61
2023/04/16 03:56:48;;;;;;;14.77;5.55;;;;;;;;;;5013237;28;20052;-60
2023/04/16 03:59:22;;;;;;;8.25;5.35;;;;;;;;;;5013070;28;20866;-60
2023/04/16 04:01:49;;;;;;;10.02;5.45;;;;;;;;;;5015149;28;20049;-57
2023/04/16 04:04:17;;;;;;;8.43;5.20;;;;;;;;;;5015495;28;20069;-58
2023/04/16 04:06:50;;;;;;;10.48;5.25;;;;;;;;;;5011474;28;20545;-55
2023/04/16 04:09:17;;;;;;;11.30;5.28;;;;;;;;;;5011415;28;20053;-56
2023/04/16 04:11:51;;;;;;;10.93;5.20;;;;;;;;;;5011952;28;20046;-57
2023/04/16 04:14:19;;;;;;;12.23;5.13;;;;;;;;;;5012367;28;20045;-58
2023/04/16 04:16:52;;;;;;;8.73;5.47;;;;;;;;;;5012229;28;20518;-56
2023/04/16 04:19:20;;;;;;;13.63;5.78;;;;;;;;;;5012193;28;20541;-60
2023/04/16 04:21:47;;;;;;;10.38;5.47;;;;;;;;;;5011878;28;20518;-57
2023/04/16 04:24:20;;;;;;;14.48;6.25;;;;;;;;;;5013442;28;20048;-57
2023/04/16 04:26:47;;;;;;;15.70;5.47;;;;;;;;;;5014920;28;20100;-59
2023/04/16 04:29:22;;;;;;;11.52;6.47;;;;;;;;;;5013636;28;20053;-59
2023/04/16 04:31:49;;;;;;;9.40;5.95;;;;;;;;;;5013931;28;20493;-58
2023/04/16 04:34:16;;;;;;;12.05;5.65;;;;;;;;;;5009175;28;20535;-53
2023/04/16 04:37:02;;;;;;;14.00;6.55;;;;;;;;;;5006607;28;20046;-54
2023/04/16 04:39:45;;;;;;;11.57;6.68;;;;;;;;;;5014327;28;20053;-54
2023/04/16 04:42:18;;;;;;;11.45;5.97;;;;;;;;;;5009941;28;20112;-55
2023/04/16 04:44:46;;;;;;;10.18;6.65;;;;;;;;;;5014830;28;20059;-54
2023/04/16 04:47:13;;;;;;;10.25;5.85;;;;;;;;;;5015379;28;20117;-59
2023/04/16 04:49:47;;;;;;;7.70;5.32;;;;;;;;;;4996234;28;20111;-58
2023/04/16 04:52:15;;;;;;;11.95;6.22;;;;;;;;;;5010648;28;20083;-58
2023/04/16 04:54:48;;;;;;;11.80;7.15;;;;;;;;;;5014344;28;20045;-57
2023/04/16 04:57:16;;;;;;;12.68;6.60;;;;;;;;;;5012312;28;20133;-61
2023/04/16 04:59:43;;;;;;;13.85;6.32;;;;;;;;;;5011899;28;20060;-58
2023/04/16 05:02:16;;;;;;;12.63;6.30;;;;;;;;;;5010080;28;20045;-58
2023/04/16 05:04:44;;;;;;;15.38;7.00;;;;;;;;;;5013434;28;20481;-59
2023/04/16 05:07:17;;;;;;;10.52;5.93;;;;;;;;;;5017796;28;20061;-60
2023/04/16 05:09:45;;;;;;;17.30;6.63;;;;;;;;;;5014355;28;20513;-59
2023/04/16 05:12:12;;;;;;;15.10;6.20;;;;;;;;;;5015718;28;20048;-59
2023/04/16 05:14:45;;;;;;;14.07;7.15;;;;;;;;;;5018039;28;20049;-50
2023/04/16 05:17:13;;;;;;;12.77;6.53;;;;;;;;;;5015685;28;20137;-49
2023/04/16 05:19:47;;;;;;;10.35;6.35;;;;;;;;;;5014295;28;20079;-50
2023/04/16 05:22:17;;;;;;;9.60;6.35;;;;;;;;;;5013228;28;20052;-51
2023/04/16 05:24:45;;;;;;;12.57;6.60;;;;;;;;;;5002509;28;21655;-60
2023/04/16 05:27:18;;;;;;;11.02;6.60;;;;;;;;;;5012299;28;20042;-58
2023/04/16 05:29:45;;;;;;;15.98;6.53;;;;;;;;;;5013596;28;20133;-59
2023/04/16 05:32:19;;;;;;;14.13;6.93;;;;;;;;;;5011471;28;20052;-60
2023/04/16 05:34:47;;;;;;;14.43;6.47;;;;;;;;;;5013211;28;20113;-59
2023/04/16 05:37:18;;;;;;;9.30;6.15;;;;;;;;;;4998934;28;20585;-58
2023/04/16 05:39:51;;;;;;;10.48;6.63;;;;;;;;;;5015981;28;20049;-57
2023/04/16 05:42:18;;;;;;;18.90;7.22;;;;;;;;;;5012497;28;20065;-61
2023/04/16 05:44:45;;;;;;;12.45;5.97;;;;;;;;;;5011199;28;20498;-61
2023/04/16 05:47:20;;;;;;;15.85;6.18;;;;;;;;;;5013045;28;20136;-61
2023/04/16 05:49:47;;;;;;;14.50;6.13;;;;;;;;;;5011564;28;20477;-61
2023/04/16 05:52:20;;;;;;;12.75;6.05;;;;;;;;;;5006719;28;20045;-60
2023/04/16 05:54:47;;;;;;;9.45;6.00;;;;;;;;;;5013524;28;20136;-55
2023/04/16 05:57:15;;;;;;;13.68;5.82;;;;;;;;;;5012439;28;20797;-46
2023/04/16 05:59:48;;;;;;;14.65;5.88;;;;;;;;;;5013460;28;20046;-46
2023/04/16 06:02:16;;;;;;;11.13;6.15;;;;;;;;;;5012849;28;20045;-47
2023/04/16 06:04:50;;;;;;;14.10;6.20;;;;;;;;;;5010614;28;21015;-48
2023/04/16 06:07:17;;;;;;;11.60;5.70;;;;;;;;;;5014351;28;20565;-49
2023/04/16 06:09:44;;;;;;;12.40;6.60;;;;;;;;;;5010563;28;20612;-46
2023/04/16 06:12:18;;;;;;;12.80;6.00;;;;;;;;;;5012422;28;20124;-54
2023/04/16 06:14:45;;;;;;;9.70;5.88;;;;;;;;;;5011521;28;20045;-56
2023/04/16 06:17:13;;;;;;;11.65;6.07;;;;;;;;;;5017470;28;20484;-57
2023/04/16 06:19:46;;;;;;;11.43;5.75;;;;;;;;;;5010796;28;20092;-55
2023/04/16 06:22:14;;;;;;;15.60;6.25;;;;;;;;;;5013063;28;20133;-61
2023/04/16 06:24:47;;;;;;;8.85;5.57;;;;;;;;;;5009461;28;20057;-51
2023/04/16 06:27:15;;;;;;;10.32;5.13;;;;;;;;;;5011565;28;20049;-48
2023/04/16 06:29:42;;;;;;;11.65;5.70;;;;;;;;;;5012005;28;20058;-55
2023/04/16 06:32:16;;;;;;;10.82;5.80;;;;;;;;;;5010944;28;20095;-52
2023/04/16 06:34:43;;;;;;;12.48;5.22;;;;;;;;;;4996087;28;20050;-50
2023/04/16 06:37:10;;;;;;;9.65;5.10;;;;;;;;;;5009782;28;20066;-49
2023/04/16 06:39:50;;;;;;;10.25;5.80;;;;;;;;;;5009238;28;20042;-49
2023/04/16 06:42:17;;;;;;;10.60;5.63;;;;;;;;;;5008181;28;20057;-47
2023/04/16 06:44:51;;;;;;;9.75;5.88;;;;;;;;;;5009348;28;20477;-50
2023/04/16 06:47:19;;;;;;;11.13;5.53;;;;;;;;;;5017048;28;20132;-48
2023/04/16 06:49:46;;;;;;;11.60;5.32;;;;;;;;;;5017447;28;20049;-45
2023/04/16 06:52:19;;;;;;;8.95;5.50;;;;;;;;;;5013361;28;20049;-48
2023/04/16 06:54:47;;;;;;;16.80;6.13;;;;;;;;;;5013830;28;20049;-59
2023/04/16 06:57:15;;;;;;;8.40;5.10;;;;;;;;;;5016307;28;20172;-59
2023/04/16 06:59:49;;;;;;;8.27;4.97;;;;;;;;;;5014667;28;20056;-58
2023/04/16 07:02:16;;;;;;;10.15;5.30;;;;;;;;;;5013520;28;20049;-60
2023/04/16 07:04:43;;;;;;;10.25;5.70;;;;;;;;;;5007686;28;20568;-59
2023/04/16 07:07:18;;;;;;;8.27;4.57;;;;;;;;;;5016487;28;20034;-59
2023/04/16 07:09:45;;;;;;;11.60;5.03;;;;;;;;;;5014143;28;20058;-61
2023/04/16 07:12:12;;;;;;;8.95;5.28;;;;;;;;;;5011574;28;20377;-62
2023/04/16 07:14:48;;;;;;;9.23;5.57;;;;;;;;;;5018194;28;20136;-61
2023/04/16 07:17:15;;;;;;;10.98;4.95;;;;;;;;;;5017051;28;20049;-61
2023/04/16 07:19:51;;;;;;;8.50;4.47;;;;;;;;;;5013356;28;20053;-54
2023/04/16 07:22:18;;;;;;;9.43;5.18;;;;;;;;;;5016483;28;20161;-60
2023/04/16 07:24:45;;;;;;;11.38;5.57;;;;;;;;;;5016919;28;20053;-58
2023/04/16 07:27:18;;;;;;;8.88;4.90;;;;;;;;;;5016212;28;20077;-58
2023/04/16 07:29:46;;;;;;;10.30;4.90;;;;;;;;;;5017637;28;20052;-60
2023/04/16 07:32:13;;;;;;;9.70;4.97;;;;;;;;;;5016826;28;20049;-59
2023/04/16 07:34:47;;;;;;;7.90;4.75;;;;;;;;;;5012636;28;20135;-60
2023/04/16 07:37:20;;;;;;;7.00;4.38;;;;;;;;;;5005451;28;20137;-61
2023/04/16 07:39:56;;;;;;;9.98;4.60;;;;;;;;;;4997177;28;20054;-60
2023/04/16 07:42:23;;;;;;;6.28;4.60;;;;;;;;;;4991264;28;20149;-60
2023/04/16 07:44:50;;;;;;;8.98;5.07;;;;;;;;;;4998370;28;20090;-60
2023/04/16 07:47:25;;;;;;;9.77;4.70;;;;;;;;;;4997762;28;20046;-60
2023/04/16 07:49:53;;;;;;;8.45;4.75;;;;;;;;;;4998429;28;20054;-58
2023/04/16 07:52:26;;;;;;;10.25;5.05;;;;;;;;;;4998018;28;20099;-58
2023/04/16 07:54:54;;;;;;;12.07;5.40;;;;;;;;;;4996038;28;20516;-56
2023/04/16 07:57:21;;;;;;;10.02;4.90;;;;;;;;;;4998532;28;20043;-58
2023/04/16 07:59:55;;;;;;;12.75;4.45;;;;;;;;;;4997868;28;20056;-57
2023/04/16 08:02:22;;;;;;;9.65;4.43;;;;;;;;;;4994423;28;20410;-57
2023/04/16 08:04:56;;;;;;;7.45;4.50;;;;;;;;;;4994791;28;20129;-51
2023/04/16 08:07:23;;;;;;;10.88;4.55;;;;;;;;;;4998600;28;20124;-52
2023/04/16 08:09:51;;;;;;;8.02;4.35;;;;;;;;;;4996747;28;20677;-51
2023/04/16 08:12:24;;;;;;;9.95;4.40;;;;;;;;;;4996212;28;20168;-49
2023/04/16 08:14:52;;;;;;;9.10;4.85;;;;;;;;;;4999626;28;20128;-60
2023/04/16 08:17:27;;;;;;;9.93;4.93;;;;;;;;;;4999696;28;20080;-61
2023/04/16 08:19:55;;;;;;;10.88;4.57;;;;;;;;;;4999505;28;20413;-56
2023/04/16 08:22:22;;;;;;;8.77;4.32;;;;;;;;;;4993201;28;20052;-55
2023/04/16 08:24:55;;;;;;;8.77;4.50;;;;;;;;;;4996641;28;20056;-58
2023/04/16 08:27:23;;;;;;;12.27;4.38;;;;;;;;;;4995052;28;20114;-59
2023/04/16 08:29:56;;;;;;;7.03;3.97;;;;;;;;;;5001227;28;20539;-59
2023/04/16 08:32:24;;;;;;;7.38;4.40;;;;;;;;;;5000432;28;20156;-58
2023/04/16 08:34:51;;;;;;;5.93;4.03;;;;;;;;;;4998043;28;20042;-57
2023/04/16 08:37:32;;;;;;;8.65;4.43;;;;;;;;;;5005763;28;20053;-56
2023/04/16 08:40:01;;;;;;;8.43;4.43;;;;;;;;;;5010787;28;20596;-59
2023/04/16 08:42:55;;;;;;;6.72;4.10;;;;;;;;;;5012822;28;20054;-56
2023/04/16 08:45:22;;;;;;;10.13;4.68;;;;;;;;;;5012001;28;20382;-59
2023/04/16 08:48:04;;;;;;;7.55;3.88;;;;;;;;;;5011138;28;20050;-59
2023/04/16 08:50:40;;;;;;;9.35;4.15;;;;;;;;;;5014363;28;20052;-59
2023/04/16 08:53:24;;;;;;;8.43;4.30;;;;;;;;;;5014455;28;20061;-57
2023/04/16 08:56:05;;;;;;;7.38;4.00;;;;;;;;;;5011221;28;20472;-59
2023/04/16 08:58:43;;;;;;;11.40;4.13;;;;;;;;;;5009408;28;20707;-59
2023/04/16 09:01:20;;;;;;;7.60;3.92;;;;;;;;;;5010849;28;20075;-58
2023/04/16 09:03:54;;;;;;;7.97;3.67;;;;;;;;;;5014236;28;20095;-59
2023/04/16 09:06:21;;;;;;;12.32;4.13;;;;;;;;;;5007731;28;20536;-59
2023/04/16 09:08:57;;;;;;;11.15;4.75;;;;;;;;;;5010458;28;20132;-59
2023/04/16 09:11:25;;;;;;;8.68;4.45;;;;;;;;;;5006231;28;20053;-51
2023/04/16 09:13:52;;;;;;;7.32;4.25;;;;;;;;;;5013595;28;20066;-52
2023/04/16 09:16:29;;;;;;;8.27;3.88;;;;;;;;;;5011061;28;20053;-55
2023/04/16 09:18:56;;;;;;;12.00;4.03;;;;;;;;;;5011810;28;20053;-53
2023/04/16 09:21:31;;;;;;;10.43;4.85;;;;;;;;;;5011244;28;20527;-53
2023/04/16 09:23:59;;;;;;;6.50;3.85;;;;;;;;;;5011912;28;21187;-49
2023/04/16 09:26:27;;;;;;;10.23;3.88;;;;;;;;;;5008037;28;20516;-56
2023/04/16 09:29:00;;;;;;;11.43;4.00;;;;;;;;;;5012218;28;20045;-50
2023/04/16 09:31:28;;;;;;;7.93;4.10;;;;;;;;;;5012923;28;20577;-59
2023/04/16 09:34:07;;;;;;;6.25;4.03;;;;;;;;;;5012225;28;20124;-58
2023/04/16 09:36:35;;;;;;;8.32;4.40;;;;;;;;;;5013922;28;20803;-58
2023/04/16 09:39:21;;;;;;;9.45;3.88;;;;;;;;;;5008799;28;20053;-57
2023/04/16 09:41:48;;;;;;;7.22;3.80;;;;;;;;;;5012992;28;20207;-48
2023/04/16 09:44:34;;;;;;;9.43;3.85;;;;;;;;;;5009286;28;20046;-60
2023/04/16 09:47:05;;;;;;;8.70;3.78;;;;;;;;;;5006414;28;20049;-61
2023/04/16 09:50:00;;;;;;;8.88;4.28;;;;;;;;;;5004034;28;20096;-61
2023/04/16 09:52:35;;;;;;;7.25;3.95;;;;;;;;;;5009844;28;20144;-61
2023/04/16 09:55:17;;;;;;;9.75;3.75;;;;;;;;;;5008758;28;20416;-61
2023/04/16 09:57:45;;;;;;;9.70;4.05;;;;;;;;;;5013222;28;20164;-61
2023/04/16 10:00:19;;;;;;;13.95;4.20;;;;;;;;;;5015673;28;20054;-61
2023/04/16 10:02:47;;;;;;;7.25;3.80;;;;;;;;;;5014064;28;20053;-62
2023/04/16 10:05:19;;;;;;;8.52;3.85;;;;;;;;;;5011247;28;20050;-61
2023/04/16 10:07:52;;;;;;;7.22;4.07;;;;;;;;;;5010820;28;20050;-62
2023/04/16 10:10:20;;;;;;;8.05;3.45;;;;;;;;;;5008822;28;20474;-62
2023/04/16 10:12:54;;;;;;;11.02;3.85;;;;;;;;;;5007302;28;20045;-61
2023/04/16 10:15:22;;;;;;;6.82;3.95;;;;;;;;;;5008616;28;20053;-60
2023/04/16 10:17:57;;;;;;;7.93;3.90;;;;;;;;;;5010660;28;20057;-60
2023/04/16 10:20:24;;;;;;;8.52;3.75;;;;;;;;;;5015189;28;20049;-60
2023/04/16 10:22:52;;;;;;;15.10;4.20;;;;;;;;;;5009109;28;20053;-60
2023/04/16 10:25:27;;;;;;;13.07;3.90;;;;;;;;;;5013821;28;20057;-60
2023/04/16 10:27:55;;;;;;;6.40;4.15;;;;;;;;;;5011830;28;20117;-60
2023/04/16 10:30:29;;;;;;;8.68;4.05;;;;;;;;;;5015198;28;20081;-60
2023/04/16 10:32:56;;;;;;;8.73;4.20;;;;;;;;;;5018053;28;20057;-60
2023/04/16 10:35:26;;;;;;;8.32;4.57;;;;;;;;;;5015213;28;20065;-60
2023/04/16 10:38:24;;;;;;;6.18;3.83;;;;;;;;;;5015211;28;20058;-59
2023/04/16 10:41:05;;;;;;;7.13;4.13;;;;;;;;;;5014406;28;20597;-61
2023/04/16 10:43:40;;;;;;;10.55;4.00;;;;;;;;;;5015956;28;20253;-61
2023/04/16 10:46:17;;;;;;;10.07;3.85;;;;;;;;;;5014593;28;20406;-61
2023/04/16 10:48:53;;;;;;;7.70;3.92;;;;;;;;;;5015584;28;20046;-61
2023/04/16 10:51:25;;;;;;;8.98;4.45;;;;;;;;;;5002132;28;20060;-61
2023/04/16 10:54:08;;;;;;;9.70;4.38;;;;;;;;;;5014712;28;20088;-61
2023/04/16 10:56:44;;;;;;;11.27;4.47;;;;;;;;;;5015395;28;20112;-60
2023/04/16 10:59:19;;;;;;;6.57;3.85;;;;;;;;;;5012394;28;20049;-60
2023/04/16 11:01:47;;;;;;;7.57;4.60;;;;;;;;;;5015048;28;20045;-61
2023/04/16 11:04:21;;;;;;;11.38;3.83;;;;;;;;;;5011198;28;20041;-60
2023/04/16 11:07:06;;;;;;;8.55;4.22;;;;;;;;;;5015804;28;20088;-60
2023/04/16 11:09:52;;;;;;;7.60;4.00;;;;;;;;;;5014168;28;20065;-49
2023/04/16 11:12:32;;;;;;;7.45;3.60;;;;;;;;;;5017409;28;20054;-48
2023/04/16 11:15:01;;;;;;;8.05;3.72;;;;;;;;;;5013934;28;20140;-55
2023/04/16 11:17:38;;;;;;;7.88;3.45;;;;;;;;;;5011402;28;20113;-48
2023/04/16 11:20:17;;;;;;;8.60;3.45;;;;;;;;;;5014023;28;20050;-49
2023/04/16 11:22:52;;;;;;;8.00;3.78;;;;;;;;;;5011823;28;20500;-49
2023/04/16 11:25:21;;;;;;;7.68;3.80;;;;;;;;;;5016522;28;20121;-60
2023/04/16 11:27:56;;;;;;;9.07;4.13;;;;;;;;;;5016159;28;20523;-60
2023/04/16 11:30:33;;;;;;;8.85;3.55;;;;;;;;;;5007962;28;21110;-61
2023/04/16 11:33:08;;;;;;;8.88;3.83;;;;;;;;;;5008991;28;20493;-60
2023/04/16 11:35:35;;;;;;;7.55;3.50;;;;;;;;;;5010824;28;20857;-59
2023/04/16 11:38:04;;;;;;;9.75;4.10;;;;;;;;;;5008949;28;20176;-61
2023/04/16 11:40:46;;;;;;;11.50;3.60;;;;;;;;;;5012363;28;20068;-61
2023/04/16 11:43:20;;;;;;;7.63;3.72;;;;;;;;;;5013748;28;20137;-61
2023/04/16 11:45:58;;;;;;;6.03;3.40;;;;;;;;;;5008379;28;20073;-61
2023/04/16 11:48:50;;;;;;;5.47;3.20;;;;;;;;;;5009933;28;20057;-61
2023/04/16 11:51:18;;;;;;;9.10;3.58;;;;;;;;;;5010015;28;20049;-61
2023/04/16 11:53:52;;;;;;;8.07;3.42;;;;;;;;;;5010744;28;20128;-62
2023/04/16 11:56:30;;;;;;;6.45;3.33;;;;;;;;;;5006632;28;20050;-62
2023/04/16 11:59:11;;;;;;;7.75;3.72;;;;;;;;;;5008839;28;20041;-62
2023/04/16 12:01:40;;;;;;;9.40;3.65;;;;;;;;;;5009990;28;20049;-62
2023/04/16 12:04:15;;;;;;;5.50;3.30;;;;;;;;;;5012294;28;20088;-59
2023/04/16 12:07:08;;;;;;;10.57;3.50;;;;;;;;;;5012986;28;20131;-59
2023/04/16 12:09:42;;;;;;;5.43;3.15;;;;;;;;;;5012901;28;20037;-60
2023/04/16 12:12:29;;;;;;;5.95;3.22;;;;;;;;;;5009920;28;20049;-59
2023/04/16 12:15:03;;;;;;;5.75;3.40;;;;;;;;;;5014421;28;20049;-59
2023/04/16 12:17:32;;;;;;;8.68;3.78;;;;;;;;;;5015986;28;20575;-59
2023/04/16 12:20:00;;;;;;;7.50;3.42;;;;;;;;;;5011835;28;20095;-60
2023/04/16 12:22:36;;;;;;;6.75;3.83;;;;;;;;;;5015303;28;20041;-59
2023/04/16 12:25:05;;;;;;;5.50;3.47;;;;;;;;;;5000120;28;20053;-58
2023/04/16 12:27:46;;;;;;;7.43;3.45;;;;;;;;;;5012611;28;20046;-56
2023/04/16 12:30:16;;;;;;;4.80;3.33;;;;;;;;;;5012044;28;20085;-57
2023/04/16 12:32:50;;;;;;;7.35;3.90;;;;;;;;;;5013313;28;20497;-54
2023/04/16 12:35:30;;;;;;;9.50;4.00;;;;;;;;;;5010898;28;20048;-61
2023/04/16 12:38:13;;;;;;;6.15;3.10;;;;;;;;;;5010482;28;20424;-62
2023/04/16 12:40:41;;;;;;;7.55;3.67;;;;;;;;;;5013986;28;20061;-62
2023/04/16 12:43:15;;;;;;;7.85;3.35;;;;;;;;;;5013748;28;20044;-63
2023/04/16 12:45:42;;;;;;;9.98;3.55;;;;;;;;;;5015491;28;20519;-62
2023/04/16 12:48:09;;;;;;;9.15;3.70;;;;;;;;;;5016350;28;20180;-62
2023/04/16 12:50:43;;;;;;;6.38;3.28;;;;;;;;;;5009387;28;20095;-48
2023/04/16 12:53:11;;;;;;;3.92;3.17;;;;;;;;;;5011854;28;20046;-50
2023/04/16 12:55:44;;;;;;;7.10;3.60;;;;;;;;;;5011119;28;20153;-50
2023/04/16 12:58:12;;;;;;;9.38;3.63;;;;;;;;;;5009602;28;20069;-49
2023/04/16 13:00:45;;;;;;;5.82;3.30;;;;;;;;;;5013452;28;20051;-61
2023/04/16 13:03:13;;;;;;;9.25;3.33;;;;;;;;;;5010976;28;20140;-61
2023/04/16 13:05:40;;;;;;;7.82;3.80;;;;;;;;;;5013736;28;20054;-61
2023/04/16 13:08:13;;;;;;;6.70;3.58;;;;;;;;;;5012148;28;20045;-61
2023/04/16 13:10:41;;;;;;;7.70;3.47;;;;;;;;;;5010297;28;20461;-62
2023/04/16 13:13:18;;;;;;;6.35;3.38;;;;;;;;;;5007972;28;20063;-61
2023/04/16 13:15:45;;;;;;;9.57;3.22;;;;;;;;;;5013367;28;20049;-61
2023/04/16 13:18:12;;;;;;;6.13;3.08;;;;;;;;;;5011550;28;20052;-58
2023/04/16 13:20:45;;;;;;;5.60;3.08;;;;;;;;;;5009249;28;20052;-59
2023/04/16 13:23:16;;;;;;;10.07;3.15;;;;;;;;;;5009578;28;20105;-57
2023/04/16 13:25:50;;;;;;;5.82;3.20;;;;;;;;;;5010369;28;20088;-59
2023/04/16 13:28:18;;;;;;;5.80;3.33;;;;;;;;;;5014005;28;20072;-61
2023/04/16 13:30:59;;;;;;;7.00;2.95;;;;;;;;;;5012813;28;20046;-59
2023/04/16 13:33:40;;;;;;;6.32;3.33;;;;;;;;;;5001172;28;20092;-56
2023/04/16 13:36:08;;;;;;;6.20;3.20;;;;;;;;;;5014120;28;20041;-58
2023/04/16 13:38:48;;;;;;;5.60;3.10;;;;;;;;;;5008280;28;20140;-59
2023/04/16 13:41:15;;;;;;;6.43;3.30;;;;;;;;;;5012232;28;20048;-58
2023/04/16 13:43:49;;;;;;;6.90;3.63;;;;;;;;;;5007735;28;20076;-56
2023/04/16 13:46:24;;;;;;;8.43;3.20;;;;;;;;;;5012653;28;20900;-60
2023/04/16 13:48:58;;;;;;;7.38;3.25;;;;;;;;;;5011379;28;20107;-60
2023/04/16 13:51:26;;;;;;;4.95;2.78;;;;;;;;;;5012381;28;20055;-60
2023/04/16 13:53:59;;;;;;;6.70;3.20;;;;;;;;;;5013742;28;20489;-60
2023/04/16 13:56:27;;;;;;;5.63;2.90;;;;;;;;;;5014979;28;20056;-58
2023/04/16 13:58:54;;;;;;;6.55;2.90;;;;;;;;;;5009128;28;20084;-61
2023/04/16 14:01:28;;;;;;;4.47;2.75;;;;;;;;;;5011556;28;20054;-60
2023/04/16 14:03:55;;;;;;;7.32;3.22;;;;;;;;;;5014433;28;20045;-59
2023/04/16 14:06:29;;;;;;;7.45;3.00;;;;;;;;;;5012504;28;20078;-60
2023/04/16 14:08:56;;;;;;;6.30;2.70;;;;;;;;;;5011101;28;20057;-60
2023/04/16 14:11:23;;;;;;;3.70;2.80;;;;;;;;;;5010668;28;20058;-60
2023/04/16 14:13:57;;;;;;;4.15;2.50;;;;;;;;;;5013570;28;20057;-60
2023/04/16 14:16:24;;;;;;;4.15;3.00;;;;;;;;;;5007914;28;20057;-60
2023/04/16 14:18:58;;;;;;;6.63;2.70;;;;;;;;;;5006772;28;20115;-61
2023/04/16 14:21:26;;;;;;;;;;;;;;;;;;5013620;28;20096;-60
2023/04/16 14:23:53;;;;;;;4.57;2.78;;;;;;;;;;5015127;28;20019;-61
2023/04/16 14:26:27;;;;;;;3.72;2.60;;;;;;;;;;5017235;28;20041;-49
2023/04/16 14:28:54;;;;;;;7.03;2.60;;;;;;;;;;5015799;28;20045;-62
2023/04/16 14:31:28;;;;;;;4.50;2.60;;;;;;;;;;5013138;28;20055;-61
2023/04/16 14:33:55;;;;;;;6.75;2.38;;;;;;;;;;5017535;28;20037;-61
2023/04/16 14:36:22;;;;;;;5.25;2.83;;;;;;;;;;5015290;28;20081;-61
2023/04/16 14:39:03;;;;;;;4.20;2.58;;;;;;;;;;5010846;28;20524;-61
2023/04/16 14:41:31;;;;;;;9.23;3.08;;;;;;;;;;5010465;28;20049;-62
2023/04/16 14:44:05;;;;;;;4.80;2.58;;;;;;;;;;5014693;28;20049;-62
2023/04/16 14:46:32;;;;;;;9.13;2.25;;;;;;;;;;5015202;28;20053;-61
2023/04/16 14:49:00;;;;;;;8.07;3.00;;;;;;;;;;5013738;28;20046;-60
2023/04/16 14:51:37;;;;;;;5.85;2.65;;;;;;;;;;5013636;28;20971;-60
2023/04/16 14:54:04;;;;;;;5.90;2.55;;;;;;;;;;5018187;28;20132;-61
2023/04/16 14:56:39;;;;;;;4.43;2.53;;;;;;;;;;5014177;28;20088;-61
2023/04/16 14:59:06;;;;;;;6.03;3.00;;;;;;;;;;5010666;28;20042;-60
2023/04/16 15:01:35;;;;;;;7.18;2.65;;;;;;;;;;5013258;28;20045;-61
2023/04/16 15:04:09;;;;;;;6.40;2.53;;;;;;;;;;5014428;28;20041;-60